Preview of NWS' New Version of Forecast
This preview is not operational and should not be used for support decisions.

Terminal Aerodrome Forecast (TAF)

Issued by National Weather Service (NWS)

                            
337 
FTUS42 KKEY 211741
TAFEYW
TAF
KEYW 211741Z 2118/2218 10016G23KT P6SM FEW025
     FM220200 09012G19KT P6SM SCT020 SCT035=